首页
METAR-TAF:

METAR-TAF

机场 :

盧布爾雅那約熱·普奇尼克機場

卢布尔雅那, 斯洛文尼亚

纬度: 46-13N, 经度: 014-29E, 海拔: 385米

当前天气观测

该预报发布于20分钟前的18:30 UTC
风速1节,风向
温度 6°C
湿度 87%
气压 1025 hPa
能见度10公里或以上
少量云层高于2000英尺
多云层高于5000英尺

METAR: LJLJ 181830Z 10001KT 9999 FEW020 BKN050 06/04 Q1025 NOSIG

时间: 19:50 (18:50 UTC)

预报

该预报发布于1小时和50分钟前的17:00 UTC
预报有效从18日的 18点(UTC)到 19日的 18点(UTC)
风速5节,风向东转东南
能见度10公里或以上
散云层高于2000英尺
多云层高于8000英尺
短暂存在
从 18日的 18点(UTC)到 19日的 12点(UTC)
多云层高于3000英尺
阴天层高于8000英尺
小雨
几率 30% :
短暂存在
从 18日的 18点(UTC)到 19日的 06点(UTC)
能見度: 7000
成为
从 18日的 20点(UTC)到 18日的 22点(UTC)
风速3节,风向西转西北

TAF: LJLJ 181700Z 1818/1918 12005KT 9999 SCT020 BKN080 TEMPO 1818/1912 -RA BKN030 OVC080 PROB30 TEMPO 1818/1906 7000 BECMG 1820/1822 30003KT

超过4000个机场的气象观测和天气预报(METAR&TAF报告)。

可查询的气象台以黄色和红色小点在地图上表示。

将鼠标移到小点上方,可查看气象台名称。

然后点击查看天气观测和预报。

如需切换地图:点击带黑十字的绿色按钮放大地图;点击带横线的绿色按钮缩小地图;或者点击绿色箭头查看邻近地区的地图。


METAR-TAF: